createdAt,value
2023-05-10T00:00:32.352Z,61.82
2023-05-10T00:01:32.340Z,61.72
2023-05-10T00:02:32.480Z,61.11
2023-05-10T00:03:32.401Z,61.52
2023-05-10T00:04:32.295Z,61.82
2023-05-10T00:05:32.281Z,60.91
2023-05-10T00:06:32.274Z,60.91
2023-05-10T00:07:32.274Z,61.01
2023-05-10T00:08:32.264Z,62.13
2023-05-10T00:09:32.238Z,61.93
2023-05-10T00:10:32.243Z,61.93
2023-05-10T00:11:32.220Z,61.62
2023-05-10T00:12:32.224Z,61.72
2023-05-10T00:13:32.264Z,62.02
2023-05-10T00:14:32.182Z,61.72
2023-05-10T00:15:32.167Z,61.32
2023-05-10T00:16:32.262Z,61.21
2023-05-10T00:17:32.203Z,61.62
2023-05-10T00:18:32.146Z,61.82
2023-05-10T00:19:32.151Z,60.60
2023-05-10T00:20:32.117Z,60.17
2023-05-10T00:21:32.324Z,60.68
2023-05-10T00:22:32.344Z,60.47
2023-05-10T00:23:32.082Z,60.47
2023-05-10T00:24:32.072Z,60.88
2023-05-10T00:25:32.069Z,60.47
2023-05-10T00:26:32.068Z,60.88
2023-05-10T00:27:32.040Z,61.49
2023-05-10T00:28:32.026Z,61.49
2023-05-10T00:29:32.009Z,61.49
2023-05-10T00:30:32.004Z,61.69
2023-05-10T00:31:32.035Z,61.39
2023-05-10T00:32:32.026Z,61.08
2023-05-10T00:33:31.981Z,61.32
2023-05-10T00:34:31.961Z,60.98
2023-05-10T00:35:31.977Z,60.88
2023-05-10T00:36:32.491Z,61.08
2023-05-10T00:37:31.927Z,60.98
2023-05-10T00:38:31.927Z,60.37
2023-05-10T00:39:31.903Z,60.44
2023-05-10T00:40:31.930Z,61.36
2023-05-10T00:41:31.901Z,61.46
2023-05-10T00:42:31.878Z,61.16
2023-05-10T00:43:31.860Z,61.05
2023-05-10T00:44:31.846Z,61.08
2023-05-10T00:45:31.846Z,60.78
2023-05-10T00:46:31.896Z,61.49
2023-05-10T00:47:31.831Z,61.18
2023-05-10T00:48:31.818Z,61.25
2023-05-10T00:49:31.805Z,61.08
2023-05-10T00:50:31.801Z,61.49
2023-05-10T00:51:31.790Z,62.30
2023-05-10T00:52:31.764Z,62.60
2023-05-10T00:53:31.743Z,62.71
2023-05-10T00:54:31.758Z,62.20
2023-05-10T00:55:31.721Z,62.51
2023-05-10T00:56:31.711Z,61.90
2023-05-10T00:57:31.709Z,62.51
2023-05-10T00:58:31.691Z,63.11
2023-05-10T00:59:31.697Z,63.01
2023-05-10T01:00:31.710Z,62.51
2023-05-10T01:01:31.735Z,62.40
2023-05-10T01:02:31.749Z,62.40
2023-05-10T01:03:31.722Z,63.92
2023-05-10T01:04:31.720Z,63.32
2023-05-10T01:05:31.612Z,62.71
2023-05-10T01:06:31.608Z,63.11
2023-05-10T01:07:31.620Z,63.42
2023-05-10T01:08:31.599Z,63.21
2023-05-10T01:09:31.579Z,63.24
2023-05-10T01:10:31.557Z,63.45
2023-05-10T01:11:31.556Z,63.62
2023-05-10T01:12:31.566Z,63.55
2023-05-10T01:13:31.565Z,63.21
2023-05-10T01:14:31.514Z,63.14
2023-05-10T01:15:31.504Z,64.06
2023-05-10T01:16:31.550Z,63.14
2023-05-10T01:17:31.503Z,64.76
2023-05-10T01:18:31.618Z,64.97
2023-05-10T01:19:31.457Z,64.06
2023-05-10T01:20:31.463Z,64.15
2023-05-10T01:21:31.441Z,63.52
2023-05-10T01:22:31.465Z,63.24
2023-05-10T01:23:31.434Z,63.85
2023-05-10T01:24:31.405Z,64.15
2023-05-10T01:25:31.398Z,64.15
2023-05-10T01:26:31.388Z,63.85
2023-05-10T01:27:31.384Z,64.06
2023-05-10T01:28:31.360Z,63.85
2023-05-10T01:29:31.340Z,63.75
2023-05-10T01:30:31.341Z,64.36
2023-05-10T01:31:31.360Z,63.85
2023-05-10T01:32:31.699Z,64.46
2023-05-10T01:33:31.301Z,63.95
2023-05-10T01:34:31.295Z,64.56
2023-05-10T01:35:31.288Z,65.48
2023-05-10T01:36:31.283Z,64.46
2023-05-10T01:37:31.263Z,64.76
2023-05-10T01:38:31.247Z,64.76
2023-05-10T01:39:31.250Z,64.76
2023-05-10T01:40:31.219Z,64.87
2023-05-10T01:41:31.230Z,64.46
2023-05-10T01:42:31.198Z,64.87
2023-05-10T01:43:31.184Z,64.87
2023-05-10T01:44:31.177Z,65.27
2023-05-10T01:45:31.176Z,64.87
2023-05-10T01:46:32.760Z,66.08
2023-05-10T01:47:31.154Z,65.27
2023-05-10T01:48:31.126Z,64.76
2023-05-10T01:49:31.122Z,64.46
2023-05-10T01:50:31.129Z,64.46
2023-05-10T01:51:31.099Z,64.67
2023-05-10T01:52:31.094Z,64.67
2023-05-10T01:53:31.076Z,65.27
2023-05-10T01:54:31.073Z,65.37
2023-05-10T01:55:31.085Z,65.27
2023-05-10T01:56:31.038Z,65.20
2023-05-10T01:57:31.032Z,64.87
2023-05-10T01:58:31.012Z,65.58
2023-05-10T01:59:31.043Z,66.08
2023-05-10T02:00:31.039Z,66.39
2023-05-10T02:01:30.988Z,65.88
2023-05-10T02:02:30.977Z,66.39
2023-05-10T02:03:30.973Z,66.60
2023-05-10T02:04:30.959Z,67.13
2023-05-10T02:05:30.938Z,66.52
2023-05-10T02:06:30.931Z,67.54
2023-05-10T02:07:30.997Z,67.44
2023-05-10T02:08:30.912Z,68.35
2023-05-10T02:09:30.922Z,67.54
2023-05-10T02:10:30.884Z,67.54
2023-05-10T02:11:30.889Z,67.74
2023-05-10T02:12:30.864Z,66.93
2023-05-10T02:13:30.947Z,68.25
2023-05-10T02:14:30.854Z,66.63
2023-05-10T02:15:30.828Z,67.84
2023-05-10T02:16:30.839Z,68.35
2023-05-10T02:17:30.835Z,67.84
2023-05-10T02:18:30.809Z,68.05
2023-05-10T02:19:30.787Z,68.25
2023-05-10T02:20:30.772Z,67.94
2023-05-10T02:21:30.761Z,68.96
2023-05-10T02:22:30.759Z,69.30
2023-05-10T02:23:30.776Z,69.06
2023-05-10T02:24:30.724Z,69.70
2023-05-10T02:25:30.713Z,69.81
2023-05-10T02:26:30.707Z,69.91
2023-05-10T02:27:30.806Z,70.82
2023-05-10T02:28:30.752Z,70.42
2023-05-10T02:29:30.670Z,70.31
2023-05-10T02:30:30.658Z,70.52
2023-05-10T02:31:30.670Z,70.82
2023-05-10T02:32:30.664Z,70.82
2023-05-10T02:33:30.625Z,70.72
2023-05-10T02:34:30.617Z,70.82
2023-05-10T02:35:30.606Z,71.33
2023-05-10T02:36:30.590Z,71.64
2023-05-10T02:37:30.598Z,72.25
2023-05-10T02:38:30.588Z,72.14
2023-05-10T02:39:30.563Z,71.94
2023-05-10T02:40:30.551Z,72.04
2023-05-10T02:41:30.556Z,71.87
2023-05-10T02:42:30.539Z,72.38
2023-05-10T02:43:30.536Z,72.28
2023-05-10T02:44:30.502Z,72.58
2023-05-10T02:45:30.491Z,73.39
2023-05-10T02:46:30.566Z,72.99
2023-05-10T02:47:30.487Z,72.85
2023-05-10T02:48:30.462Z,73.30
2023-05-10T02:49:30.447Z,73.50
2023-05-10T02:50:30.463Z,74.11
2023-05-10T02:51:30.445Z,72.69
2023-05-10T02:52:30.424Z,73.19
2023-05-10T02:53:30.402Z,74.01
2023-05-10T02:54:30.392Z,73.70
2023-05-10T02:55:30.394Z,73.50
2023-05-10T02:56:30.369Z,74.82
2023-05-10T02:57:30.363Z,75.43
2023-05-10T02:58:30.348Z,74.62
2023-05-10T02:59:30.362Z,75.43
2023-05-10T03:00:30.342Z,76.14
2023-05-10T03:01:30.345Z,74.52
2023-05-10T03:02:30.375Z,75.63
2023-05-10T03:03:30.298Z,75.33
2023-05-10T03:04:30.329Z,75.53
2023-05-10T03:05:30.284Z,74.62
2023-05-10T03:06:30.274Z,74.62
2023-05-10T03:07:30.249Z,73.70
2023-05-10T03:08:30.285Z,74.58
2023-05-10T03:09:30.242Z,74.48
2023-05-10T03:10:30.221Z,74.38
2023-05-10T03:11:30.225Z,75.60
2023-05-10T03:12:30.230Z,75.43
2023-05-10T03:13:30.287Z,75.29
2023-05-10T03:14:30.273Z,75.43
2023-05-10T03:15:30.184Z,76.21
2023-05-10T03:16:30.299Z,75.29
2023-05-10T03:17:30.167Z,75.73
2023-05-10T03:18:30.172Z,75.60
2023-05-10T03:19:30.134Z,76.10
2023-05-10T03:20:30.104Z,77.22
2023-05-10T03:21:30.092Z,77.97
2023-05-10T03:22:30.088Z,78.38
2023-05-10T03:23:30.079Z,78.48
2023-05-10T03:24:30.057Z,79.09
2023-05-10T03:25:30.058Z,79.39
2023-05-10T03:26:30.037Z,80.11
2023-05-10T03:27:30.029Z,80.41
2023-05-10T03:28:30.039Z,80.62
2023-05-10T03:29:30.001Z,80.62
2023-05-10T03:30:29.989Z,81.43
2023-05-10T03:31:30.137Z,81.93
2023-05-10T03:32:30.025Z,82.48
2023-05-10T03:33:29.968Z,81.98
2023-05-10T03:34:29.948Z,82.28
2023-05-10T03:35:29.930Z,83.81
2023-05-10T03:36:29.928Z,83.29
2023-05-10T03:37:29.929Z,84.01
2023-05-10T03:38:30.681Z,84.11
2023-05-10T03:39:29.889Z,83.70
2023-05-10T03:40:29.881Z,83.70
2023-05-10T03:41:29.866Z,84.42
2023-05-10T03:42:29.888Z,85.06
2023-05-10T03:43:29.839Z,85.74
2023-05-10T03:44:29.830Z,85.64
2023-05-10T03:45:29.830Z,85.88
2023-05-10T03:46:29.870Z,86.08
2023-05-10T03:47:29.854Z,86.08
2023-05-10T03:48:29.792Z,86.19
2023-05-10T03:49:29.779Z,86.69
2023-05-10T03:50:29.766Z,87.00
2023-05-10T03:51:29.766Z,87.71
2023-05-10T03:52:29.753Z,87.41
2023-05-10T03:53:29.738Z,88.69
2023-05-10T03:54:29.725Z,89.03
2023-05-10T03:55:29.707Z,89.34
2023-05-10T03:56:30.162Z,89.44
2023-05-10T03:57:29.686Z,89.95
2023-05-10T03:58:29.682Z,90.05
2023-05-10T03:59:29.666Z,89.95
2023-05-10T04:00:29.669Z,90.66
2023-05-10T04:01:29.664Z,90.56
2023-05-10T04:02:29.716Z,91.07
2023-05-10T04:03:29.717Z,91.68
2023-05-10T04:04:29.606Z,92.09
2023-05-10T04:05:29.622Z,91.58
2023-05-10T04:06:29.677Z,91.78
2023-05-10T04:07:29.668Z,91.88
2023-05-10T04:08:29.568Z,91.88
2023-05-10T04:09:29.559Z,91.93
2023-05-10T04:10:29.560Z,92.64
2023-05-10T04:11:29.540Z,92.74
2023-05-10T04:12:29.525Z,92.94
2023-05-10T04:13:29.532Z,93.01
2023-05-10T04:14:29.516Z,93.05
2023-05-10T04:15:29.496Z,92.94
2023-05-10T04:16:29.499Z,92.94
2023-05-10T04:17:29.482Z,93.05
2023-05-10T04:18:29.461Z,92.84
2023-05-10T04:19:29.474Z,93.15
2023-05-10T04:20:29.432Z,92.94
2023-05-10T04:21:29.417Z,93.25
2023-05-10T04:22:29.412Z,93.05
2023-05-10T04:23:29.400Z,93.70
2023-05-10T04:24:29.403Z,93.70
2023-05-10T04:25:29.371Z,93.60
2023-05-10T04:26:29.367Z,94.11
2023-05-10T04:27:29.348Z,94.07
2023-05-10T04:28:29.390Z,93.90
2023-05-10T04:29:29.348Z,93.70
2023-05-10T04:30:29.326Z,93.60
2023-05-10T04:31:29.362Z,93.70
2023-05-10T04:32:29.318Z,93.60
2023-05-10T04:33:29.297Z,93.60
2023-05-10T04:34:29.275Z,94.11
2023-05-10T04:35:29.292Z,93.90
2023-05-10T04:36:29.252Z,93.90
2023-05-10T04:37:29.238Z,93.90
2023-05-10T04:38:29.264Z,94.01
2023-05-10T04:39:29.222Z,93.80
2023-05-10T04:40:29.218Z,93.90
2023-05-10T04:41:29.201Z,93.80
2023-05-10T04:42:29.201Z,94.15
2023-05-10T04:43:29.181Z,94.42
2023-05-10T04:44:29.163Z,95.13
2023-05-10T04:45:29.151Z,95.33
2023-05-10T04:46:29.182Z,94.35
2023-05-10T04:47:29.266Z,95.17
2023-05-10T04:48:29.122Z,95.28
2023-05-10T04:49:29.113Z,94.97
2023-05-10T04:50:29.105Z,95.07
2023-05-10T04:51:29.115Z,95.07
2023-05-10T04:52:29.104Z,95.48
2023-05-10T04:53:29.065Z,95.03
2023-05-10T04:54:29.048Z,95.64
2023-05-10T04:55:29.032Z,95.53
2023-05-10T04:56:29.040Z,95.64
2023-05-10T04:57:29.029Z,95.84
2023-05-10T04:58:29.017Z,95.64
2023-05-10T04:59:28.996Z,95.64
2023-05-10T05:00:28.987Z,95.58
2023-05-10T05:01:29.102Z,95.43
2023-05-10T05:02:29.057Z,95.94
2023-05-10T05:03:29.025Z,95.53
2023-05-10T05:04:28.938Z,95.74
2023-05-10T05:05:28.923Z,95.74
2023-05-10T05:06:28.933Z,95.94
2023-05-10T05:07:28.928Z,96.25
2023-05-10T05:08:28.898Z,96.04
2023-05-10T05:09:28.880Z,95.94
2023-05-10T05:10:28.888Z,95.84
2023-05-10T05:11:28.873Z,95.53
2023-05-10T05:12:28.857Z,95.69
2023-05-10T05:13:28.894Z,96.61
2023-05-10T05:14:28.827Z,96.71
2023-05-10T05:15:28.832Z,96.86
2023-05-10T05:16:28.861Z,96.55
2023-05-10T05:17:28.847Z,96.66
2023-05-10T05:18:28.783Z,96.41
2023-05-10T05:19:28.774Z,96.76
2023-05-10T05:20:28.782Z,96.61
2023-05-10T05:21:28.748Z,96.41
2023-05-10T05:22:28.757Z,96.41
2023-05-10T05:23:28.746Z,96.20
2023-05-10T05:24:28.731Z,96.51
2023-05-10T05:25:28.719Z,96.71
2023-05-10T05:26:28.697Z,97.12
2023-05-10T05:27:28.689Z,96.67
2023-05-10T05:28:28.675Z,97.42
2023-05-10T05:29:28.673Z,97.12
2023-05-10T05:30:28.684Z,97.53
2023-05-10T05:31:28.694Z,97.32
2023-05-10T05:32:28.650Z,97.53
2023-05-10T05:33:28.662Z,97.53
2023-05-10T05:34:28.616Z,97.32
2023-05-10T05:35:28.666Z,97.42
2023-05-10T05:36:28.605Z,97.32
2023-05-10T05:37:28.605Z,97.53
2023-05-10T05:38:28.576Z,97.38
2023-05-10T05:39:28.578Z,97.42
2023-05-10T05:40:28.555Z,97.07
2023-05-10T05:41:28.532Z,97.38
2023-05-10T05:42:28.505Z,96.87
2023-05-10T05:43:28.518Z,97.07
2023-05-10T05:44:28.484Z,96.97
2023-05-10T05:45:28.475Z,97.07
2023-05-10T05:46:28.505Z,97.07
2023-05-10T05:47:28.462Z,96.87
2023-05-10T05:48:28.464Z,97.07
2023-05-10T05:49:28.428Z,97.28
2023-05-10T05:50:28.421Z,97.44
2023-05-10T05:51:28.413Z,97.48
2023-05-10T05:52:28.545Z,97.94
2023-05-10T05:53:28.406Z,97.74
2023-05-10T05:54:28.383Z,97.69
2023-05-10T05:55:28.400Z,97.64
2023-05-10T05:56:28.351Z,97.74
2023-05-10T05:57:28.359Z,97.53
2023-05-10T05:58:28.356Z,97.64
2023-05-10T05:59:28.324Z,97.33
2023-05-10T06:00:28.333Z,97.53
2023-05-10T06:01:28.298Z,97.33
2023-05-10T06:02:28.363Z,97.33
2023-05-10T06:03:28.374Z,97.44
2023-05-10T06:04:28.429Z,97.84
2023-05-10T06:05:28.254Z,97.49
2023-05-10T06:06:28.254Z,97.60
2023-05-10T06:07:28.259Z,97.49
2023-05-10T06:08:28.227Z,97.49
2023-05-10T06:09:28.210Z,97.29
2023-05-10T06:10:28.264Z,97.19
2023-05-10T06:11:28.282Z,97.39
2023-05-10T06:12:28.178Z,97.69
2023-05-10T06:13:28.288Z,97.80
2023-05-10T06:14:28.158Z,97.60
2023-05-10T06:15:28.163Z,97.60
2023-05-10T06:16:28.189Z,97.14
2023-05-10T06:17:28.153Z,97.14
2023-05-10T06:18:28.108Z,98.05
2023-05-10T06:19:28.103Z,97.55
2023-05-10T06:20:28.130Z,97.44
2023-05-10T06:21:28.095Z,98.05
2023-05-10T06:22:28.065Z,98.05
2023-05-10T06:23:28.095Z,97.34
2023-05-10T06:24:28.041Z,98.16
2023-05-10T06:25:28.051Z,97.55
2023-05-10T06:26:28.019Z,97.34
2023-05-10T06:27:28.025Z,97.65
2023-05-10T06:28:28.009Z,98.05
2023-05-10T06:29:27.986Z,97.75
2023-05-10T06:30:27.992Z,97.65
2023-05-10T06:31:28.031Z,97.85
2023-05-10T06:32:27.982Z,98.05
2023-05-10T06:33:27.948Z,97.60
2023-05-10T06:34:27.953Z,97.50
2023-05-10T06:35:27.945Z,97.85
2023-05-10T06:36:27.903Z,97.80
2023-05-10T06:37:27.896Z,97.65
2023-05-10T06:38:27.886Z,97.85
2023-05-10T06:39:27.898Z,97.85
2023-05-10T06:40:27.862Z,97.91
2023-05-10T06:41:27.852Z,98.01
2023-05-10T06:42:27.843Z,98.16
2023-05-10T06:43:27.856Z,97.60
2023-05-10T06:44:27.844Z,97.71
2023-05-10T06:45:27.804Z,97.91
2023-05-10T06:46:27.835Z,98.01
2023-05-10T06:47:27.872Z,97.86
2023-05-10T06:48:27.802Z,97.76
2023-05-10T06:49:27.794Z,98.07
2023-05-10T06:50:27.750Z,97.76
2023-05-10T06:51:27.740Z,97.56
2023-05-10T06:52:27.729Z,97.92
2023-05-10T06:53:27.735Z,97.92
2023-05-10T06:54:27.708Z,97.51
2023-05-10T06:55:27.698Z,97.20
2023-05-10T06:56:27.686Z,97.47
2023-05-10T06:57:31.738Z,97.47
2023-05-10T06:58:27.721Z,96.86
2023-05-10T06:59:27.710Z,96.86
2023-05-10T07:00:27.656Z,96.75
2023-05-10T07:01:27.641Z,97.16
2023-05-10T07:02:27.787Z,95.89
2023-05-10T07:03:27.617Z,96.25
2023-05-10T07:04:27.652Z,95.99
2023-05-10T07:05:27.606Z,95.99
2023-05-10T07:06:33.446Z,96.09
2023-05-10T07:07:28.586Z,95.99
2023-05-10T07:08:27.565Z,95.94
2023-05-10T07:09:27.538Z,96.09
2023-05-10T07:10:27.532Z,96.14
2023-05-10T07:11:27.527Z,96.14
2023-05-10T07:12:27.573Z,96.14
2023-05-10T07:13:27.557Z,96.09
2023-05-10T07:14:27.507Z,96.50
2023-05-10T07:15:27.971Z,96.60
2023-05-10T07:16:27.496Z,96.70
2023-05-10T07:17:27.614Z,96.50
2023-05-10T07:18:27.561Z,97.31
2023-05-10T07:19:27.430Z,96.39
2023-05-10T07:20:27.416Z,96.14
2023-05-10T07:21:27.504Z,96.44
2023-05-10T07:22:27.408Z,96.34
2023-05-10T07:23:27.409Z,95.89
2023-05-10T07:24:27.376Z,96.09
2023-05-10T07:25:27.370Z,95.99
2023-05-10T07:26:27.368Z,96.30
2023-05-10T07:27:27.361Z,96.09
2023-05-10T07:28:27.325Z,95.94
2023-05-10T07:29:27.315Z,96.15
2023-05-10T07:30:27.355Z,96.35
2023-05-10T07:31:27.326Z,96.35
2023-05-10T07:32:27.343Z,95.79
2023-05-10T07:33:27.283Z,95.58
2023-05-10T07:34:27.259Z,95.79
2023-05-10T07:35:27.260Z,94.98
2023-05-10T07:36:27.278Z,94.77
2023-05-10T07:37:27.227Z,94.67
2023-05-10T07:38:27.215Z,94.12
2023-05-10T07:39:28.250Z,94.73
2023-05-10T07:40:28.188Z,94.73
2023-05-10T07:41:27.190Z,94.68
2023-05-10T07:42:27.173Z,95.09
2023-05-10T07:43:27.161Z,94.78
2023-05-10T07:44:27.157Z,94.89
2023-05-10T07:45:27.212Z,94.27
2023-05-10T07:46:27.272Z,94.78
2023-05-10T07:47:27.226Z,93.87
2023-05-10T07:48:27.102Z,93.67
2023-05-10T07:49:27.130Z,93.57
2023-05-10T07:50:27.089Z,93.77
2023-05-10T07:51:27.072Z,94.07
2023-05-10T07:52:27.062Z,94.38
2023-05-10T07:53:27.076Z,94.38
2023-05-10T07:54:27.075Z,94.68
2023-05-10T07:55:27.025Z,93.77
2023-05-10T07:56:27.020Z,93.67
2023-05-10T07:57:27.003Z,93.62
2023-05-10T07:58:26.996Z,93.22
2023-05-10T07:59:27.002Z,93.26
2023-05-10T08:00:26.971Z,93.62
2023-05-10T08:01:26.961Z,93.37
2023-05-10T08:02:27.002Z,93.73
2023-05-10T08:03:27.145Z,93.37
2023-05-10T08:04:26.996Z,93.73
2023-05-10T08:05:26.915Z,93.87
2023-05-10T08:06:26.901Z,93.46
2023-05-10T08:07:26.895Z,93.37
2023-05-10T08:08:26.893Z,93.26
2023-05-10T08:09:26.882Z,93.22
2023-05-10T08:10:26.859Z,92.65
2023-05-10T08:11:26.850Z,92.55
2023-05-10T08:12:26.835Z,92.61
2023-05-10T08:13:26.839Z,92.41
2023-05-10T08:14:26.809Z,92.86
2023-05-10T08:15:26.802Z,91.94
2023-05-10T08:16:26.827Z,91.90
2023-05-10T08:17:26.837Z,92.41
2023-05-10T08:18:26.819Z,91.60
2023-05-10T08:19:26.785Z,91.55
2023-05-10T08:20:26.760Z,90.95
2023-05-10T08:21:26.737Z,91.46
2023-05-10T08:22:26.739Z,91.25
2023-05-10T08:23:26.718Z,91.05
2023-05-10T08:24:26.699Z,90.75
2023-05-10T08:25:26.687Z,91.00
2023-05-10T08:26:26.677Z,91.20
2023-05-10T08:27:26.696Z,90.80
2023-05-10T08:28:26.672Z,90.09
2023-05-10T08:29:26.788Z,89.79
2023-05-10T08:30:26.643Z,89.18
2023-05-10T08:31:26.685Z,88.84
2023-05-10T08:32:26.724Z,88.74
2023-05-10T08:33:26.678Z,89.04
2023-05-10T08:34:26.709Z,89.14
2023-05-10T08:35:26.647Z,89.20
2023-05-10T08:36:26.593Z,88.39
2023-05-10T08:37:26.553Z,88.25
2023-05-10T08:38:26.543Z,88.25
2023-05-10T08:39:30.418Z,88.21
2023-05-10T08:40:26.521Z,88.21
2023-05-10T08:41:26.530Z,86.99
2023-05-10T08:42:26.497Z,86.43
2023-05-10T08:43:26.489Z,86.43
2023-05-10T08:44:26.481Z,86.83
2023-05-10T08:45:26.490Z,87.74
2023-05-10T08:46:26.531Z,86.63
2023-05-10T08:47:26.526Z,87.64
2023-05-10T08:48:26.434Z,88.25
2023-05-10T08:49:26.422Z,88.19
2023-05-10T08:50:26.447Z,86.98
2023-05-10T08:51:26.413Z,87.42
2023-05-10T08:52:26.395Z,89.04
2023-05-10T08:53:26.384Z,88.33
2023-05-10T08:54:26.365Z,88.43
2023-05-10T08:55:26.378Z,88.78
2023-05-10T08:56:26.351Z,89.08
2023-05-10T08:57:26.342Z,89.04
2023-05-10T08:58:26.330Z,89.85
2023-05-10T08:59:26.340Z,88.90
2023-05-10T09:00:26.543Z,88.85
2023-05-10T09:01:26.305Z,88.51
2023-05-10T09:02:26.284Z,86.59
2023-05-10T09:03:26.279Z,85.70
2023-05-10T09:04:26.425Z,85.16
2023-05-10T09:05:26.262Z,86.13
2023-05-10T09:06:26.237Z,84.01
2023-05-10T09:07:26.262Z,83.34
2023-05-10T09:08:26.212Z,80.96
2023-05-10T09:09:26.237Z,83.12
2023-05-10T09:10:26.190Z,83.42
2023-05-10T09:11:26.188Z,81.80
2023-05-10T09:12:26.184Z,82.91
2023-05-10T09:13:26.565Z,83.62
2023-05-10T09:14:26.184Z,79.88
2023-05-10T09:15:26.139Z,81.50
2023-05-10T09:16:26.200Z,82.91
2023-05-10T09:17:26.271Z,81.60
2023-05-10T09:18:27.915Z,81.44
2023-05-10T09:19:26.098Z,82.75
2023-05-10T09:20:26.087Z,85.08
2023-05-10T09:21:26.077Z,83.66
2023-05-10T09:22:26.061Z,84.97
2023-05-10T09:23:26.085Z,84.27
2023-05-10T09:24:26.035Z,82.35
2023-05-10T09:25:26.023Z,83.66
2023-05-10T09:26:26.025Z,82.91
2023-05-10T09:27:26.153Z,83.58
2023-05-10T09:28:26.007Z,83.74
2023-05-10T09:29:25.985Z,82.79
2023-05-10T09:30:25.968Z,83.00
2023-05-10T09:31:26.146Z,80.92
2023-05-10T09:32:25.999Z,79.91
2023-05-10T09:33:26.333Z,80.45
2023-05-10T09:34:25.931Z,81.36
2023-05-10T09:35:27.991Z,81.26
2023-05-10T09:36:25.905Z,81.56
2023-05-10T09:37:25.901Z,81.60
2023-05-10T09:38:25.880Z,83.01
2023-05-10T09:39:25.900Z,82.04
2023-05-10T09:40:25.867Z,83.05
2023-05-10T09:41:25.867Z,84.97
2023-05-10T09:42:25.853Z,85.28
2023-05-10T09:43:25.827Z,85.99
2023-05-10T09:44:25.817Z,85.58
2023-05-10T09:45:25.808Z,85.78
2023-05-10T09:46:25.859Z,86.59
2023-05-10T09:47:25.880Z,86.19
2023-05-10T09:48:25.797Z,85.08
2023-05-10T09:49:25.766Z,85.99
2023-05-10T09:50:25.768Z,86.35
2023-05-10T09:51:25.801Z,86.15
2023-05-10T09:52:25.728Z,86.41
2023-05-10T09:53:25.724Z,85.30
2023-05-10T09:54:25.702Z,84.95
2023-05-10T09:55:25.771Z,84.95
2023-05-10T09:56:25.713Z,84.49
2023-05-10T09:57:25.678Z,84.99
2023-05-10T09:58:25.674Z,84.59
2023-05-10T09:59:25.656Z,84.93
2023-05-10T10:00:25.652Z,83.66
2023-05-10T10:01:25.688Z,83.09
2023-05-10T10:02:25.691Z,84.41
2023-05-10T10:03:25.603Z,85.11
2023-05-10T10:04:25.606Z,86.02
2023-05-10T10:05:25.612Z,83.29
2023-05-10T10:06:30.089Z,83.90
2023-05-10T10:07:26.579Z,84.87
2023-05-10T10:08:25.555Z,84.63
2023-05-10T10:09:25.563Z,82.81
2023-05-10T10:10:25.558Z,83.32
2023-05-10T10:11:25.541Z,82.73
2023-05-10T10:12:25.514Z,83.00
2023-05-10T10:13:25.497Z,81.79
2023-05-10T10:14:25.490Z,80.18
2023-05-10T10:15:25.471Z,81.65
2023-05-10T10:16:25.484Z,81.41
2023-05-10T10:17:25.477Z,79.03
2023-05-10T10:18:25.453Z,77.82
2023-05-10T10:19:25.453Z,79.57
2023-05-10T10:20:25.422Z,78.63
2023-05-10T10:21:25.451Z,78.99
2023-05-10T10:22:25.408Z,79.39
2023-05-10T10:23:25.404Z,79.09
2023-05-10T10:24:25.405Z,78.69
2023-05-10T10:25:25.388Z,78.32
2023-05-10T10:26:25.354Z,79.60
2023-05-10T10:27:25.361Z,76.87
2023-05-10T10:28:26.152Z,75.70
2023-05-10T10:29:25.317Z,74.58
2023-05-10T10:30:25.308Z,74.55
2023-05-10T10:31:25.357Z,74.62
2023-05-10T10:32:25.390Z,74.41
2023-05-10T10:33:28.925Z,76.89
2023-05-10T10:34:25.264Z,76.83
2023-05-10T10:35:25.255Z,73.14
2023-05-10T10:36:25.241Z,75.96
2023-05-10T10:37:25.242Z,76.76
2023-05-10T10:38:25.225Z,76.70
2023-05-10T10:39:25.209Z,77.61
2023-05-10T10:40:25.194Z,75.90
2023-05-10T10:41:25.189Z,74.93
2023-05-10T10:42:25.195Z,74.62
2023-05-10T10:43:25.221Z,77.11
2023-05-10T10:44:25.158Z,75.39
2023-05-10T10:45:25.139Z,74.92
2023-05-10T10:46:25.159Z,76.23
2023-05-10T10:47:25.164Z,73.71
2023-05-10T10:48:25.111Z,74.62
2023-05-10T10:49:25.091Z,73.28
2023-05-10T10:50:25.085Z,74.58
2023-05-10T10:51:25.089Z,73.88
2023-05-10T10:52:25.093Z,73.98
2023-05-10T10:53:25.112Z,75.86
2023-05-10T10:54:25.039Z,73.65
2023-05-10T10:55:25.027Z,73.08
2023-05-10T10:56:25.039Z,74.79
2023-05-10T10:57:25.007Z,74.85
2023-05-10T10:58:24.991Z,75.49
2023-05-10T10:59:25.003Z,74.89
2023-05-10T11:00:24.990Z,76.90
2023-05-10T11:01:24.990Z,77.14
2023-05-10T11:02:25.003Z,75.02
2023-05-10T11:03:24.939Z,74.86
2023-05-10T11:04:24.958Z,74.76
2023-05-10T11:05:24.955Z,76.91
2023-05-10T11:06:24.914Z,75.96
2023-05-10T11:07:24.893Z,77.21
2023-05-10T11:08:24.889Z,76.87
2023-05-10T11:09:24.870Z,75.90
2023-05-10T11:10:24.872Z,77.11
2023-05-10T11:11:24.847Z,79.49
2023-05-10T11:12:24.842Z,80.44
2023-05-10T11:13:24.826Z,78.49
2023-05-10T11:14:24.840Z,77.88
2023-05-10T11:15:24.855Z,78.79
2023-05-10T11:16:24.914Z,77.78
2023-05-10T11:17:24.815Z,78.49
2023-05-10T11:18:24.797Z,79.60
2023-05-10T11:19:24.781Z,81.65
2023-05-10T11:20:24.746Z,82.96
2023-05-10T11:21:24.762Z,82.35
2023-05-10T11:22:24.731Z,83.36
2023-05-10T11:23:24.714Z,82.96
2023-05-10T11:24:24.713Z,84.63
2023-05-10T11:25:24.689Z,84.59
2023-05-10T11:26:24.683Z,83.48
2023-05-10T11:27:24.669Z,82.68
2023-05-10T11:28:24.675Z,81.13
2023-05-10T11:29:24.664Z,80.22
2023-05-10T11:30:24.639Z,81.19
2023-05-10T11:31:24.830Z,80.55
2023-05-10T11:32:24.669Z,79.74
2023-05-10T11:33:24.613Z,79.04
2023-05-10T11:34:24.593Z,78.40
2023-05-10T11:35:24.586Z,78.10
2023-05-10T11:36:24.580Z,78.16
2023-05-10T11:37:24.557Z,77.22
2023-05-10T11:38:24.569Z,75.01
2023-05-10T11:39:24.559Z,75.48
2023-05-10T11:40:24.532Z,75.88
2023-05-10T11:41:24.516Z,74.37
2023-05-10T11:42:24.524Z,71.70
2023-05-10T11:43:24.705Z,71.90
2023-05-10T11:44:24.489Z,71.30
2023-05-10T11:45:24.474Z,71.09
2023-05-10T11:46:24.515Z,72.30
2023-05-10T11:47:24.932Z,74.81
2023-05-10T11:48:24.446Z,73.03
2023-05-10T11:49:24.433Z,72.30
2023-05-10T11:50:24.417Z,73.47
2023-05-10T11:51:24.415Z,72.33
2023-05-10T11:52:24.424Z,68.76
2023-05-10T11:53:25.873Z,68.35
2023-05-10T11:54:24.384Z,68.39
2023-05-10T11:55:24.373Z,71.50
2023-05-10T11:56:24.614Z,71.73
2023-05-10T11:57:24.358Z,72.33
2023-05-10T11:58:24.352Z,71.86
2023-05-10T11:59:24.342Z,71.13
2023-05-10T12:00:24.311Z,69.62
2023-05-10T12:01:24.320Z,70.39
2023-05-10T12:02:24.437Z,73.21
2023-05-10T12:03:24.450Z,73.47
2023-05-10T12:04:24.320Z,73.54
2023-05-10T12:05:24.274Z,72.90
2023-05-10T12:06:24.257Z,74.48
2023-05-10T12:07:24.241Z,72.67
2023-05-10T12:08:24.226Z,72.24
2023-05-10T12:09:39.522Z,71.93
2023-05-10T12:10:25.223Z,71.20
2023-05-10T12:11:24.204Z,70.79
2023-05-10T12:12:24.182Z,70.86
2023-05-10T12:13:24.165Z,71.36
2023-05-10T12:14:24.161Z,69.93
2023-05-10T12:15:24.163Z,68.85
2023-05-10T12:16:24.147Z,69.26
2023-05-10T12:17:24.152Z,66.71
2023-05-10T12:18:24.161Z,68.85
2023-05-10T12:19:24.124Z,68.76
2023-05-10T12:20:24.116Z,69.39
2023-05-10T12:21:24.073Z,69.79
2023-05-10T12:22:24.079Z,73.14
2023-05-10T12:23:24.057Z,72.13
2023-05-10T12:24:24.063Z,72.24
2023-05-10T12:25:24.048Z,71.33
2023-05-10T12:26:24.023Z,69.29
2023-05-10T12:27:24.017Z,71.09
2023-05-10T12:28:24.003Z,72.54
2023-05-10T12:29:24.002Z,73.31
2023-05-10T12:30:23.987Z,73.18
2023-05-10T12:31:24.012Z,71.47
2023-05-10T12:32:23.975Z,71.77
2023-05-10T12:33:23.953Z,72.47
2023-05-10T12:34:23.950Z,72.84
2023-05-10T12:35:23.943Z,71.63
2023-05-10T12:36:23.919Z,71.53
2023-05-10T12:37:23.905Z,71.43
2023-05-10T12:38:23.913Z,71.33
2023-05-10T12:39:23.909Z,69.89
2023-05-10T12:40:23.874Z,71.00
2023-05-10T12:41:23.889Z,71.60
2023-05-10T12:42:23.853Z,71.77
2023-05-10T12:43:23.852Z,71.53
2023-05-10T12:44:23.831Z,72.33
2023-05-10T12:45:23.831Z,70.79
2023-05-10T12:46:23.886Z,71.20
2023-05-10T12:47:23.952Z,68.62
2023-05-10T12:48:23.806Z,67.82
2023-05-10T12:49:23.777Z,68.02
2023-05-10T12:50:23.765Z,68.95
2023-05-10T12:51:23.771Z,68.35
2023-05-10T12:52:23.755Z,69.15